sensor_id;sensor_type;location;lat;lon;timestamp;temperature;humidity
1680;DHT22;838;51.794;12.258;2022-12-17T00:01:30;-0.90;40.50
1680;DHT22;838;51.794;12.258;2022-12-17T00:04:15;-0.80;38.70
1680;DHT22;838;51.794;12.258;2022-12-17T00:06:59;-0.60;34.90
1680;DHT22;838;51.794;12.258;2022-12-17T00:09:43;-0.50;37.60
1680;DHT22;838;51.794;12.258;2022-12-17T00:12:28;-0.10;34.00
1680;DHT22;838;51.794;12.258;2022-12-17T00:15:12;-0.20;31.80
1680;DHT22;838;51.794;12.258;2022-12-17T00:18:04;-0.30;32.20
1680;DHT22;838;51.794;12.258;2022-12-17T00:20:53;-0.50;32.80
1680;DHT22;838;51.794;12.258;2022-12-17T00:23:38;-0.60;34.50
1680;DHT22;838;51.794;12.258;2022-12-17T00:26:22;-0.60;33.10
1680;DHT22;838;51.794;12.258;2022-12-17T00:29:06;-0.90;35.50
1680;DHT22;838;51.794;12.258;2022-12-17T00:31:50;-1.30;39.70
1680;DHT22;838;51.794;12.258;2022-12-17T00:34:34;-1.20;42.00
1680;DHT22;838;51.794;12.258;2022-12-17T00:37:19;-1.30;43.10
1680;DHT22;838;51.794;12.258;2022-12-17T00:40:03;-1.40;42.90
1680;DHT22;838;51.794;12.258;2022-12-17T00:42:58;-1.40;44.00
1680;DHT22;838;51.794;12.258;2022-12-17T00:45:42;-1.10;43.90
1680;DHT22;838;51.794;12.258;2022-12-17T00:48:46;-1.20;40.60
1680;DHT22;838;51.794;12.258;2022-12-17T00:51:31;-1.30;43.30
1680;DHT22;838;51.794;12.258;2022-12-17T00:54:15;-1.10;43.50
1680;DHT22;838;51.794;12.258;2022-12-17T00:56:59;-1.10;40.90
1680;DHT22;838;51.794;12.258;2022-12-17T00:59:43;-1.10;41.80
1680;DHT22;838;51.794;12.258;2022-12-17T01:02:27;-1.00;39.20
1680;DHT22;838;51.794;12.258;2022-12-17T01:05:12;-0.70;39.80
1680;DHT22;838;51.794;12.258;2022-12-17T01:08:04;-0.80;34.40
1680;DHT22;838;51.794;12.258;2022-12-17T01:10:49;-1.00;36.90
1680;DHT22;838;51.794;12.258;2022-12-17T01:13:33;-1.30;38.10
1680;DHT22;838;51.794;12.258;2022-12-17T01:16:17;-1.60;43.30
1680;DHT22;838;51.794;12.258;2022-12-17T01:19:01;-1.70;42.60
1680;DHT22;838;51.794;12.258;2022-12-17T01:21:46;-1.60;46.50
1680;DHT22;838;51.794;12.258;2022-12-17T01:24:30;-1.80;43.50
1680;DHT22;838;51.794;12.258;2022-12-17T01:27:14;-1.70;44.30
1680;DHT22;838;51.794;12.258;2022-12-17T01:29:58;-1.30;45.40
1680;DHT22;838;51.794;12.258;2022-12-17T01:32:42;-1.30;41.30
1680;DHT22;838;51.794;12.258;2022-12-17T01:35:27;-1.00;39.10
1680;DHT22;838;51.794;12.258;2022-12-17T01:38:12;-0.70;33.70
1680;DHT22;838;51.794;12.258;2022-12-17T01:40:57;-0.90;34.00
1680;DHT22;838;51.794;12.258;2022-12-17T01:43:41;-0.50;30.80
1680;DHT22;838;51.794;12.258;2022-12-17T01:46:26;-0.60;27.90
1680;DHT22;838;51.794;12.258;2022-12-17T01:49:12;-0.70;29.30
1680;DHT22;838;51.794;12.258;2022-12-17T01:51:57;-0.40;27.40
1680;DHT22;838;51.794;12.258;2022-12-17T01:54:42;-0.40;25.20
1680;DHT22;838;51.794;12.258;2022-12-17T01:57:27;-0.60;24.90
1680;DHT22;838;51.794;12.258;2022-12-17T02:00:14;-0.70;24.20
1680;DHT22;838;51.794;12.258;2022-12-17T02:02:59;-0.60;23.80
1680;DHT22;838;51.794;12.258;2022-12-17T02:06:09;-0.60;23.10
1680;DHT22;838;51.794;12.258;2022-12-17T02:18:00;-1.20;22.70
1680;DHT22;838;51.794;12.258;2022-12-17T02:20:50;-1.30;24.70
1680;DHT22;838;51.794;12.258;2022-12-17T02:26:43;-1.90;29.30
1680;DHT22;838;51.794;12.258;2022-12-17T02:29:34;-2.00;33.10
1680;DHT22;838;51.794;12.258;2022-12-17T02:32:19;-2.10;32.80
1680;DHT22;838;51.794;12.258;2022-12-17T02:35:12;-2.20;38.90
1680;DHT22;838;51.794;12.258;2022-12-17T02:37:57;-2.40;40.80
1680;DHT22;838;51.794;12.258;2022-12-17T02:40:42;-2.50;43.90
1680;DHT22;838;51.794;12.258;2022-12-17T02:43:28;-2.70;47.90
1680;DHT22;838;51.794;12.258;2022-12-17T02:46:12;-2.70;50.40
1680;DHT22;838;51.794;12.258;2022-12-17T02:48:57;-2.50;51.60
1680;DHT22;838;51.794;12.258;2022-12-17T02:51:41;-2.50;52.50
1680;DHT22;838;51.794;12.258;2022-12-17T02:54:31;-2.50;53.90
1680;DHT22;838;51.794;12.258;2022-12-17T02:57:15;-2.10;57.50
1680;DHT22;838;51.794;12.258;2022-12-17T03:00:00;-1.80;48.60
1680;DHT22;838;51.794;12.258;2022-12-17T03:02:44;-2.20;50.50
1680;DHT22;838;51.794;12.258;2022-12-17T03:05:28;-2.40;51.50
1680;DHT22;838;51.794;12.258;2022-12-17T03:08:12;-2.30;55.70
1680;DHT22;838;51.794;12.258;2022-12-17T03:10:57;-2.20;54.50
1680;DHT22;838;51.794;12.258;2022-12-17T03:13:41;-2.10;53.00
1680;DHT22;838;51.794;12.258;2022-12-17T03:16:25;-2.40;52.00
1680;DHT22;838;51.794;12.258;2022-12-17T03:19:10;-2.30;56.40
1680;DHT22;838;51.794;12.258;2022-12-17T03:21:54;-2.20;55.80
1680;DHT22;838;51.794;12.258;2022-12-17T03:24:39;-2.00;52.10
1680;DHT22;838;51.794;12.258;2022-12-17T03:27:36;-2.10;53.90
1680;DHT22;838;51.794;12.258;2022-12-17T03:30:20;-1.80;53.20
1680;DHT22;838;51.794;12.258;2022-12-17T03:33:07;-1.50;48.00
1680;DHT22;838;51.794;12.258;2022-12-17T03:35:52;-1.40;46.60
1680;DHT22;838;51.794;12.258;2022-12-17T03:38:37;-1.40;41.30
1680;DHT22;838;51.794;12.258;2022-12-17T03:41:21;-1.30;42.00
1680;DHT22;838;51.794;12.258;2022-12-17T03:44:06;-1.30;42.30
1680;DHT22;838;51.794;12.258;2022-12-17T03:46:50;-1.40;38.80
1680;DHT22;838;51.794;12.258;2022-12-17T03:49:34;-1.70;40.00
1680;DHT22;838;51.794;12.258;2022-12-17T03:52:19;-1.80;41.10
1680;DHT22;838;51.794;12.258;2022-12-17T03:55:03;-1.70;44.00
1680;DHT22;838;51.794;12.258;2022-12-17T03:57:47;-2.30;44.40
1680;DHT22;838;51.794;12.258;2022-12-17T04:00:32;-2.20;49.80
1680;DHT22;838;51.794;12.258;2022-12-17T04:03:16;-2.30;50.40
1680;DHT22;838;51.794;12.258;2022-12-17T04:06:00;-2.00;50.30
1680;DHT22;838;51.794;12.258;2022-12-17T04:08:44;-1.70;47.10
1680;DHT22;838;51.794;12.258;2022-12-17T04:11:28;-1.60;42.90
1680;DHT22;838;51.794;12.258;2022-12-17T04:14:12;-1.90;41.50
1680;DHT22;838;51.794;12.258;2022-12-17T04:16:56;-2.30;40.40
1680;DHT22;838;51.794;12.258;2022-12-17T04:19:41;-2.90;48.20
1680;DHT22;838;51.794;12.258;2022-12-17T04:22:25;-3.20;51.80
1680;DHT22;838;51.794;12.258;2022-12-17T04:25:09;-3.50;56.20
1680;DHT22;838;51.794;12.258;2022-12-17T04:27:53;-3.60;59.60
1680;DHT22;838;51.794;12.258;2022-12-17T04:30:37;-3.60;60.70
1680;DHT22;838;51.794;12.258;2022-12-17T04:33:22;-3.80;64.40
1680;DHT22;838;51.794;12.258;2022-12-17T04:36:06;-3.90;68.70
1680;DHT22;838;51.794;12.258;2022-12-17T04:38:50;-4.00;70.50
1680;DHT22;838;51.794;12.258;2022-12-17T04:41:35;-4.00;73.80
1680;DHT22;838;51.794;12.258;2022-12-17T04:44:19;-4.10;75.90
1680;DHT22;838;51.794;12.258;2022-12-17T04:47:03;-4.00;77.10
1680;DHT22;838;51.794;12.258;2022-12-17T04:49:47;-3.70;77.50
1680;DHT22;838;51.794;12.258;2022-12-17T04:52:31;-3.60;75.90
1680;DHT22;838;51.794;12.258;2022-12-17T04:55:15;-3.50;75.50
1680;DHT22;838;51.794;12.258;2022-12-17T04:58:03;-3.30;75.30
1680;DHT22;838;51.794;12.258;2022-12-17T05:00:53;-3.20;71.40
1680;DHT22;838;51.794;12.258;2022-12-17T05:03:38;-3.20;72.00
1680;DHT22;838;51.794;12.258;2022-12-17T05:06:22;-3.50;69.10
1680;DHT22;838;51.794;12.258;2022-12-17T05:09:07;-3.50;69.10
1680;DHT22;838;51.794;12.258;2022-12-17T05:11:51;-3.40;69.90
1680;DHT22;838;51.794;12.258;2022-12-17T05:14:35;-3.50;67.30
1680;DHT22;838;51.794;12.258;2022-12-17T05:17:19;-3.50;71.10
1680;DHT22;838;51.794;12.258;2022-12-17T05:20:04;-3.40;70.00
1680;DHT22;838;51.794;12.258;2022-12-17T05:22:48;-3.60;68.70
1680;DHT22;838;51.794;12.258;2022-12-17T05:25:33;-3.80;70.40
1680;DHT22;838;51.794;12.258;2022-12-17T05:28:17;-4.00;73.60
1680;DHT22;838;51.794;12.258;2022-12-17T05:31:01;-4.20;78.40
1680;DHT22;838;51.794;12.258;2022-12-17T05:33:46;-4.10;81.10
1680;DHT22;838;51.794;12.258;2022-12-17T05:36:30;-4.20;81.50
1680;DHT22;838;51.794;12.258;2022-12-17T05:39:14;-4.20;83.50
1680;DHT22;838;51.794;12.258;2022-12-17T05:41:59;-4.30;85.40
1680;DHT22;838;51.794;12.258;2022-12-17T05:44:43;-4.30;86.30
1680;DHT22;838;51.794;12.258;2022-12-17T05:47:27;-4.20;87.30
1680;DHT22;838;51.794;12.258;2022-12-17T05:50:11;-3.70;89.30
1680;DHT22;838;51.794;12.258;2022-12-17T05:53:03;-3.70;85.50
1680;DHT22;838;51.794;12.258;2022-12-17T05:55:52;-3.50;85.50
1680;DHT22;838;51.794;12.258;2022-12-17T05:58:37;-3.50;80.40
1680;DHT22;838;51.794;12.258;2022-12-17T06:01:22;-3.50;82.20
1680;DHT22;838;51.794;12.258;2022-12-17T06:04:06;-3.50;81.60
1680;DHT22;838;51.794;12.258;2022-12-17T06:06:50;-3.60;79.10
1680;DHT22;838;51.794;12.258;2022-12-17T06:09:35;-3.70;77.10
1680;DHT22;838;51.794;12.258;2022-12-17T06:12:19;-3.60;79.70
1680;DHT22;838;51.794;12.258;2022-12-17T06:15:03;-3.10;81.00
1680;DHT22;838;51.794;12.258;2022-12-17T06:17:55;-3.00;76.70
1680;DHT22;838;51.794;12.258;2022-12-17T06:20:39;-2.90;77.00
1680;DHT22;838;51.794;12.258;2022-12-17T06:23:24;-2.60;75.80
1680;DHT22;838;51.794;12.258;2022-12-17T06:26:08;-2.50;69.70
1680;DHT22;838;51.794;12.258;2022-12-17T06:28:52;-2.30;67.90
1680;DHT22;838;51.794;12.258;2022-12-17T06:31:36;-2.20;62.80
1680;DHT22;838;51.794;12.258;2022-12-17T06:34:20;-2.20;61.70
1680;DHT22;838;51.794;12.258;2022-12-17T06:37:04;-2.00;57.00
1680;DHT22;838;51.794;12.258;2022-12-17T06:39:48;-1.90;52.90
1680;DHT22;838;51.794;12.258;2022-12-17T06:42:32;-2.20;52.10
1680;DHT22;838;51.794;12.258;2022-12-17T06:45:16;-2.20;52.50
1680;DHT22;838;51.794;12.258;2022-12-17T06:48:02;-2.40;50.60
1680;DHT22;838;51.794;12.258;2022-12-17T06:50:46;-2.60;52.60
1680;DHT22;838;51.794;12.258;2022-12-17T06:53:30;-3.00;55.00
1680;DHT22;838;51.794;12.258;2022-12-17T06:56:14;-3.10;58.30
1680;DHT22;838;51.794;12.258;2022-12-17T06:58:58;-3.20;61.60
1680;DHT22;838;51.794;12.258;2022-12-17T07:01:42;-2.90;64.30
1680;DHT22;838;51.794;12.258;2022-12-17T07:04:27;-2.80;60.40
1680;DHT22;838;51.794;12.258;2022-12-17T07:07:11;-2.90;58.40
1680;DHT22;838;51.794;12.258;2022-12-17T07:09:55;-2.80;60.00
1680;DHT22;838;51.794;12.258;2022-12-17T07:12:40;-2.60;57.10
1680;DHT22;838;51.794;12.258;2022-12-17T07:15:24;-2.60;58.00
1680;DHT22;838;51.794;12.258;2022-12-17T07:18:08;-2.80;55.70
1680;DHT22;838;51.794;12.258;2022-12-17T07:20:52;-2.60;57.40
1680;DHT22;838;51.794;12.258;2022-12-17T07:23:37;-2.60;55.30
1680;DHT22;838;51.794;12.258;2022-12-17T07:26:21;-2.80;54.20
1680;DHT22;838;51.794;12.258;2022-12-17T07:29:05;-2.80;56.50
1680;DHT22;838;51.794;12.258;2022-12-17T07:31:49;-3.00;58.90
1680;DHT22;838;51.794;12.258;2022-12-17T07:34:34;-3.20;60.40
1680;DHT22;838;51.794;12.258;2022-12-17T07:37:18;-3.20;61.90
1680;DHT22;838;51.794;12.258;2022-12-17T07:40:02;-3.30;63.10
1680;DHT22;838;51.794;12.258;2022-12-17T07:42:47;-3.20;65.60
1680;DHT22;838;51.794;12.258;2022-12-17T07:45:31;-3.10;64.60
1680;DHT22;838;51.794;12.258;2022-12-17T07:48:15;-3.20;61.60
1680;DHT22;838;51.794;12.258;2022-12-17T07:50:59;-3.30;64.00
1680;DHT22;838;51.794;12.258;2022-12-17T07:53:45;-3.00;65.60
1680;DHT22;838;51.794;12.258;2022-12-17T07:56:29;-3.00;65.80
1680;DHT22;838;51.794;12.258;2022-12-17T07:59:13;-3.00;61.60
1680;DHT22;838;51.794;12.258;2022-12-17T08:01:57;-2.90;63.40
1680;DHT22;838;51.794;12.258;2022-12-17T08:04:41;-2.80;63.10
1680;DHT22;838;51.794;12.258;2022-12-17T08:07:25;-2.80;58.00
1680;DHT22;838;51.794;12.258;2022-12-17T08:10:10;-3.10;60.10
1680;DHT22;838;51.794;12.258;2022-12-17T08:13:04;-3.00;67.50
1680;DHT22;838;51.794;12.258;2022-12-17T08:15:51;-3.00;65.60
1680;DHT22;838;51.794;12.258;2022-12-17T08:18:35;-2.50;63.00
1680;DHT22;838;51.794;12.258;2022-12-17T08:21:20;-2.90;56.20
1680;DHT22;838;51.794;12.258;2022-12-17T08:24:04;-3.30;62.60
1680;DHT22;838;51.794;12.258;2022-12-17T08:26:49;-3.00;67.50
1680;DHT22;838;51.794;12.258;2022-12-17T08:29:33;-2.40;62.70
1680;DHT22;838;51.794;12.258;2022-12-17T08:32:17;-2.20;63.90
1680;DHT22;838;51.794;12.258;2022-12-17T08:35:02;-1.70;57.90
1680;DHT22;838;51.794;12.258;2022-12-17T08:37:46;-2.00;51.70
1680;DHT22;838;51.794;12.258;2022-12-17T08:40:30;-1.80;51.60
1680;DHT22;838;51.794;12.258;2022-12-17T08:43:15;-1.60;50.40
1680;DHT22;838;51.794;12.258;2022-12-17T08:45:59;-1.40;45.40
1680;DHT22;838;51.794;12.258;2022-12-17T08:48:43;-1.20;45.70
1680;DHT22;838;51.794;12.258;2022-12-17T08:51:27;-0.80;42.00
1680;DHT22;838;51.794;12.258;2022-12-17T08:54:11;-0.60;36.80
1680;DHT22;838;51.794;12.258;2022-12-17T08:56:56;-0.90;40.60
1680;DHT22;838;51.794;12.258;2022-12-17T08:59:40;-0.70;38.30
1680;DHT22;838;51.794;12.258;2022-12-17T09:02:24;-0.60;38.90
1680;DHT22;838;51.794;12.258;2022-12-17T09:05:08;-0.60;35.10
1680;DHT22;838;51.794;12.258;2022-12-17T09:08:00;-0.60;34.50
1680;DHT22;838;51.794;12.258;2022-12-17T09:10:45;-0.40;34.20
1680;DHT22;838;51.794;12.258;2022-12-17T09:13:29;-0.30;32.10
1680;DHT22;838;51.794;12.258;2022-12-17T09:16:13;-0.20;33.00
1680;DHT22;838;51.794;12.258;2022-12-17T09:18:57;-0.30;31.70
1680;DHT22;838;51.794;12.258;2022-12-17T09:21:42;-0.30;32.30
1680;DHT22;838;51.794;12.258;2022-12-17T09:24:26;-0.30;32.00
1680;DHT22;838;51.794;12.258;2022-12-17T09:27:10;0.00;32.90
1680;DHT22;838;51.794;12.258;2022-12-17T09:29:54;0.10;29.80
1680;DHT22;838;51.794;12.258;2022-12-17T09:32:39;0.20;29.60
1680;DHT22;838;51.794;12.258;2022-12-17T09:35:23;-0.10;29.80
1680;DHT22;838;51.794;12.258;2022-12-17T09:38:13;-0.40;31.30
1680;DHT22;838;51.794;12.258;2022-12-17T09:41:04;-0.60;33.10
1680;DHT22;838;51.794;12.258;2022-12-17T09:44:05;-0.60;34.30
1680;DHT22;838;51.794;12.258;2022-12-17T09:47:01;-0.50;32.30
1680;DHT22;838;51.794;12.258;2022-12-17T09:49:46;-0.40;31.40
1680;DHT22;838;51.794;12.258;2022-12-17T09:52:39;-0.50;32.00
1680;DHT22;838;51.794;12.258;2022-12-17T09:55:38;-0.90;35.20
1680;DHT22;838;51.794;12.258;2022-12-17T09:58:25;-0.80;38.60
1680;DHT22;838;51.794;12.258;2022-12-17T10:01:18;-0.60;37.30
1680;DHT22;838;51.794;12.258;2022-12-17T10:04:04;-0.20;35.70
1680;DHT22;838;51.794;12.258;2022-12-17T10:06:50;0.00;32.70
1680;DHT22;838;51.794;12.258;2022-12-17T10:09:34;-0.20;28.80
1680;DHT22;838;51.794;12.258;2022-12-17T10:12:19;-0.90;31.50
1680;DHT22;838;51.794;12.258;2022-12-17T10:15:06;-1.30;38.20
1680;DHT22;838;51.794;12.258;2022-12-17T10:17:50;-1.60;41.20
1680;DHT22;838;51.794;12.258;2022-12-17T10:20:42;-1.50;44.90
1680;DHT22;838;51.794;12.258;2022-12-17T10:23:31;-1.10;41.80
1680;DHT22;838;51.794;12.258;2022-12-17T10:26:27;-0.80;42.10
1680;DHT22;838;51.794;12.258;2022-12-17T10:29:18;-0.70;39.20
1680;DHT22;838;51.794;12.258;2022-12-17T10:32:23;-0.30;35.50
1680;DHT22;838;51.794;12.258;2022-12-17T10:38:03;0.30;31.30
1680;DHT22;838;51.794;12.258;2022-12-17T10:40:52;0.50;30.10
1680;DHT22;838;51.794;12.258;2022-12-17T10:43:38;0.40;28.60
1680;DHT22;838;51.794;12.258;2022-12-17T10:46:30;0.40;28.80
1680;DHT22;838;51.794;12.258;2022-12-17T10:49:20;0.50;28.10
1680;DHT22;838;51.794;12.258;2022-12-17T10:52:20;0.70;27.70
1680;DHT22;838;51.794;12.258;2022-12-17T10:55:25;0.80;25.50
1680;DHT22;838;51.794;12.258;2022-12-17T10:58:28;0.80;27.40
1680;DHT22;838;51.794;12.258;2022-12-17T11:01:21;0.90;24.50
1680;DHT22;838;51.794;12.258;2022-12-17T11:04:28;0.80;25.20
1680;DHT22;838;51.794;12.258;2022-12-17T11:07:35;0.70;24.10
1680;DHT22;838;51.794;12.258;2022-12-17T11:10:25;0.40;26.80
1680;DHT22;838;51.794;12.258;2022-12-17T11:13:30;0.10;27.40
1680;DHT22;838;51.794;12.258;2022-12-17T11:16:29;-1.00;31.20
1680;DHT22;838;51.794;12.258;2022-12-17T11:19:40;-1.50;40.40
1680;DHT22;838;51.794;12.258;2022-12-17T11:22:35;-1.30;45.10
1680;DHT22;838;51.794;12.258;2022-12-17T11:25:41;-1.00;39.50
1680;DHT22;838;51.794;12.258;2022-12-17T11:28:28;-0.70;37.80
1680;DHT22;838;51.794;12.258;2022-12-17T11:31:34;-0.20;37.40
1680;DHT22;838;51.794;12.258;2022-12-17T11:37:21;0.20;27.90
1680;DHT22;838;51.794;12.258;2022-12-17T11:40:24;-0.70;31.40
1680;DHT22;838;51.794;12.258;2022-12-17T11:52:37;-1.80;51.30
1680;DHT22;838;51.794;12.258;2022-12-17T11:55:38;-1.40;49.50
1680;DHT22;838;51.794;12.258;2022-12-17T12:01:19;-1.40;41.80
1680;DHT22;838;51.794;12.258;2022-12-17T12:07:31;-1.60;44.60
1680;DHT22;838;51.794;12.258;2022-12-17T12:10:22;-1.00;42.20
1680;DHT22;838;51.794;12.258;2022-12-17T12:16:18;-0.50;36.40
1680;DHT22;838;51.794;12.258;2022-12-17T12:19:27;-0.50;34.30
1680;DHT22;838;51.794;12.258;2022-12-17T12:22:29;-0.80;35.70
1680;DHT22;838;51.794;12.258;2022-12-17T12:25:41;-1.20;37.40
1680;DHT22;838;51.794;12.258;2022-12-17T12:28:39;-0.90;40.00
1680;DHT22;838;51.794;12.258;2022-12-17T12:34:13;-0.60;38.20
1680;DHT22;838;51.794;12.258;2022-12-17T12:37:01;-0.30;34.20
1680;DHT22;838;51.794;12.258;2022-12-17T12:40:04;-0.10;33.90
1680;DHT22;838;51.794;12.258;2022-12-17T12:46:14;0.20;27.30
1680;DHT22;838;51.794;12.258;2022-12-17T12:49:19;-0.10;29.20
1680;DHT22;838;51.794;12.258;2022-12-17T12:52:04;-0.20;29.30
1680;DHT22;838;51.794;12.258;2022-12-17T12:54:52;-0.10;29.30
1680;DHT22;838;51.794;12.258;2022-12-17T12:57:54;-0.10;29.50
1680;DHT22;838;51.794;12.258;2022-12-17T13:00:39;-0.10;29.40
1680;DHT22;838;51.794;12.258;2022-12-17T13:06:56;-0.20;28.80
1680;DHT22;838;51.794;12.258;2022-12-17T13:09:30;-0.20;29.10
1680;DHT22;838;51.794;12.258;2022-12-17T13:14:51;-0.30;29.60
1680;DHT22;838;51.794;12.258;2022-12-17T13:20:20;-0.90;31.60
1680;DHT22;838;51.794;12.258;2022-12-17T13:23:04;-0.90;32.20
1680;DHT22;838;51.794;12.258;2022-12-17T13:25:38;-0.80;30.70
1680;DHT22;838;51.794;12.258;2022-12-17T13:28:22;-0.90;31.80
1680;DHT22;838;51.794;12.258;2022-12-17T13:31:14;-0.80;34.70
1680;DHT22;838;51.794;12.258;2022-12-17T13:34:00;-0.40;31.70
1680;DHT22;838;51.794;12.258;2022-12-17T13:36:44;-0.10;27.60
1680;DHT22;838;51.794;12.258;2022-12-17T13:39:24;-0.70;29.10
1680;DHT22;838;51.794;12.258;2022-12-17T13:41:56;-1.10;32.10
1680;DHT22;838;51.794;12.258;2022-12-17T13:44:39;-1.40;34.90
1680;DHT22;838;51.794;12.258;2022-12-17T13:47:22;-1.50;37.50
1680;DHT22;838;51.794;12.258;2022-12-17T13:49:53;-1.30;36.90
1680;DHT22;838;51.794;12.258;2022-12-17T13:52:22;-1.00;36.30
1680;DHT22;838;51.794;12.258;2022-12-17T13:54:49;-0.50;35.20
1680;DHT22;838;51.794;12.258;2022-12-17T13:57:21;-0.40;32.30
1680;DHT22;838;51.794;12.258;2022-12-17T13:59:56;-0.90;29.90
1680;DHT22;838;51.794;12.258;2022-12-17T14:02:31;-1.20;34.40
1680;DHT22;838;51.794;12.258;2022-12-17T14:04:59;-1.60;36.30
1680;DHT22;838;51.794;12.258;2022-12-17T14:07:27;-1.90;38.30
1680;DHT22;838;51.794;12.258;2022-12-17T14:09:53;-2.10;41.70
1680;DHT22;838;51.794;12.258;2022-12-17T14:12:22;-2.10;45.30
1680;DHT22;838;51.794;12.258;2022-12-17T14:15:02;-2.20;43.30
1680;DHT22;838;51.794;12.258;2022-12-17T14:17:35;-2.50;46.10
1680;DHT22;838;51.794;12.258;2022-12-17T14:20:05;-2.40;49.70
1680;DHT22;838;51.794;12.258;2022-12-17T14:22:37;-2.40;48.80
1680;DHT22;838;51.794;12.258;2022-12-17T14:25:09;-2.50;47.90
1680;DHT22;838;51.794;12.258;2022-12-17T14:27:38;-2.30;49.00
1680;DHT22;838;51.794;12.258;2022-12-17T14:30:20;-2.00;47.60
1680;DHT22;838;51.794;12.258;2022-12-17T14:32:47;-1.90;44.50
1680;DHT22;838;51.794;12.258;2022-12-17T14:35:24;-2.20;45.50
1680;DHT22;838;51.794;12.258;2022-12-17T14:37:50;-2.20;46.20
1680;DHT22;838;51.794;12.258;2022-12-17T14:40:15;-2.20;48.00
1680;DHT22;838;51.794;12.258;2022-12-17T14:42:41;-2.20;44.60
1680;DHT22;838;51.794;12.258;2022-12-17T14:47:38;-2.10;45.50
1680;DHT22;838;51.794;12.258;2022-12-17T14:58:07;-2.80;47.50
1680;DHT22;838;51.794;12.258;2022-12-17T15:00:36;-3.20;53.10
1680;DHT22;838;51.794;12.258;2022-12-17T15:03:01;-3.30;54.80
1680;DHT22;838;51.794;12.258;2022-12-17T15:05:27;-3.30;57.20
1680;DHT22;838;51.794;12.258;2022-12-17T15:07:53;-3.10;61.30
1680;DHT22;838;51.794;12.258;2022-12-17T15:10:20;-2.80;58.30
1680;DHT22;838;51.794;12.258;2022-12-17T15:12:46;-3.00;55.00
1680;DHT22;838;51.794;12.258;2022-12-17T15:15:16;-3.20;56.20
1680;DHT22;838;51.794;12.258;2022-12-17T15:17:42;-3.50;57.20
1680;DHT22;838;51.794;12.258;2022-12-17T15:20:16;-3.60;61.00
1680;DHT22;838;51.794;12.258;2022-12-17T15:22:43;-3.70;62.60
1680;DHT22;838;51.794;12.258;2022-12-17T15:25:17;-3.30;62.20
1680;DHT22;838;51.794;12.258;2022-12-17T15:27:43;-3.30;63.30
1680;DHT22;838;51.794;12.258;2022-12-17T15:30:13;-3.20;64.10
1680;DHT22;838;51.794;12.258;2022-12-17T15:32:39;-3.10;62.20
1680;DHT22;838;51.794;12.258;2022-12-17T15:35:05;-3.10;60.10
1680;DHT22;838;51.794;12.258;2022-12-17T15:37:31;-3.20;60.40
1680;DHT22;838;51.794;12.258;2022-12-17T15:39:57;-3.20;59.80
1680;DHT22;838;51.794;12.258;2022-12-17T15:42:22;-3.10;60.20
1680;DHT22;838;51.794;12.258;2022-12-17T15:45:07;-3.00;61.20
1680;DHT22;838;51.794;12.258;2022-12-17T15:47:33;-2.70;58.50
1680;DHT22;838;51.794;12.258;2022-12-17T15:49:58;-2.40;57.60
1680;DHT22;838;51.794;12.258;2022-12-17T15:52:24;-2.30;50.80
1680;DHT22;838;51.794;12.258;2022-12-17T15:54:50;-2.50;49.60
1680;DHT22;838;51.794;12.258;2022-12-17T15:57:15;-2.50;48.60
1680;DHT22;838;51.794;12.258;2022-12-17T15:59:41;-2.40;48.60
1680;DHT22;838;51.794;12.258;2022-12-17T16:02:09;-2.40;48.50
1680;DHT22;838;51.794;12.258;2022-12-17T16:04:34;-2.40;46.60
1680;DHT22;838;51.794;12.258;2022-12-17T16:07:02;-2.30;45.90
1680;DHT22;838;51.794;12.258;2022-12-17T16:09:28;-2.50;44.60
1680;DHT22;838;51.794;12.258;2022-12-17T16:11:54;-3.00;47.20
1680;DHT22;838;51.794;12.258;2022-12-17T16:14:24;-3.50;50.20
1680;DHT22;838;51.794;12.258;2022-12-17T16:16:50;-3.90;55.40
1680;DHT22;838;51.794;12.258;2022-12-17T16:19:16;-4.10;60.50
1680;DHT22;838;51.794;12.258;2022-12-17T16:21:42;-4.20;63.70
1680;DHT22;838;51.794;12.258;2022-12-17T16:24:08;-4.30;67.40
1680;DHT22;838;51.794;12.258;2022-12-17T16:26:36;-4.30;69.10
1680;DHT22;838;51.794;12.258;2022-12-17T16:29:02;-4.20;72.00
1680;DHT22;838;51.794;12.258;2022-12-17T16:31:28;-4.00;73.30
1680;DHT22;838;51.794;12.258;2022-12-17T16:33:53;-3.90;71.40
1680;DHT22;838;51.794;12.258;2022-12-17T16:36:20;-3.70;73.10
1680;DHT22;838;51.794;12.258;2022-12-17T16:38:51;-3.60;71.00
1680;DHT22;838;51.794;12.258;2022-12-17T16:41:18;-3.50;70.60
1680;DHT22;838;51.794;12.258;2022-12-17T16:43:44;-3.40;68.00
1680;DHT22;838;51.794;12.258;2022-12-17T16:48:51;-3.20;67.20
1680;DHT22;838;51.794;12.258;2022-12-17T16:51:19;-3.00;66.00
1680;DHT22;838;51.794;12.258;2022-12-17T16:53:45;-2.90;64.90
1680;DHT22;838;51.794;12.258;2022-12-17T16:56:16;-2.60;63.50
1680;DHT22;838;51.794;12.258;2022-12-17T16:58:42;-2.40;59.80
1680;DHT22;838;51.794;12.258;2022-12-17T17:01:08;-2.30;52.70
1680;DHT22;838;51.794;12.258;2022-12-17T17:03:40;-2.30;56.00
1680;DHT22;838;51.794;12.258;2022-12-17T17:06:07;-2.20;50.30
1680;DHT22;838;51.794;12.258;2022-12-17T17:08:37;-2.70;48.80
1680;DHT22;838;51.794;12.258;2022-12-17T17:11:15;-2.90;51.50
1680;DHT22;838;51.794;12.258;2022-12-17T17:13:42;-3.30;54.60
1680;DHT22;838;51.794;12.258;2022-12-17T17:16:08;-3.50;57.50
1680;DHT22;838;51.794;12.258;2022-12-17T17:18:35;-3.40;59.80
1680;DHT22;838;51.794;12.258;2022-12-17T17:24:06;-3.60;64.30
1680;DHT22;838;51.794;12.258;2022-12-17T17:26:33;-3.70;65.40
1680;DHT22;838;51.794;12.258;2022-12-17T17:29:00;-3.80;67.00
1680;DHT22;838;51.794;12.258;2022-12-17T17:31:26;-3.70;69.10
1680;DHT22;838;51.794;12.258;2022-12-17T17:33:52;-3.40;68.80
1680;DHT22;838;51.794;12.258;2022-12-17T17:36:22;-3.20;67.10
1680;DHT22;838;51.794;12.258;2022-12-17T17:38:50;-3.10;63.20
1680;DHT22;838;51.794;12.258;2022-12-17T17:41:22;-3.30;64.50
1680;DHT22;838;51.794;12.258;2022-12-17T17:43:56;-3.20;64.40
1680;DHT22;838;51.794;12.258;2022-12-17T17:46:23;-3.40;62.90
1680;DHT22;838;51.794;12.258;2022-12-17T17:48:50;-3.40;63.50
1680;DHT22;838;51.794;12.258;2022-12-17T17:51:18;-3.40;64.00
1680;DHT22;838;51.794;12.258;2022-12-17T17:53:46;-3.50;65.40
1680;DHT22;838;51.794;12.258;2022-12-17T17:56:15;-3.40;66.00
1680;DHT22;838;51.794;12.258;2022-12-17T17:58:43;-3.40;63.80
1680;DHT22;838;51.794;12.258;2022-12-17T18:01:14;-3.40;64.40
1680;DHT22;838;51.794;12.258;2022-12-17T18:03:40;-3.40;65.60
1680;DHT22;838;51.794;12.258;2022-12-17T18:06:07;-3.30;65.90
1680;DHT22;838;51.794;12.258;2022-12-17T18:08:34;-3.10;66.00
1680;DHT22;838;51.794;12.258;2022-12-17T18:11:02;-3.10;62.00
1680;DHT22;838;51.794;12.258;2022-12-17T18:13:28;-3.10;63.10
1680;DHT22;838;51.794;12.258;2022-12-17T18:16:13;-3.20;59.10
1680;DHT22;838;51.794;12.258;2022-12-17T18:18:39;-3.50;62.90
1680;DHT22;838;51.794;12.258;2022-12-17T18:21:07;-3.50;64.80
1680;DHT22;838;51.794;12.258;2022-12-17T18:23:33;-3.50;65.90
1680;DHT22;838;51.794;12.258;2022-12-17T18:26:04;-3.60;67.50
1680;DHT22;838;51.794;12.258;2022-12-17T18:28:31;-3.40;68.00
1680;DHT22;838;51.794;12.258;2022-12-17T18:30:57;-3.30;67.20
1680;DHT22;838;51.794;12.258;2022-12-17T18:33:23;-3.20;66.30
1680;DHT22;838;51.794;12.258;2022-12-17T18:35:49;-3.20;66.00
1680;DHT22;838;51.794;12.258;2022-12-17T18:38:16;-3.20;66.90
1680;DHT22;838;51.794;12.258;2022-12-17T18:40:41;-3.10;67.60
1680;DHT22;838;51.794;12.258;2022-12-17T18:43:08;-3.00;67.10